sensor_id;sensor_type;location;lat;lon;timestamp;P1;durP1;ratioP1;P2;durP2;ratioP2
54841;SDS011;40741;45.002;7.536;2024-03-08T00:01:01;7.75;;;3.95;;
54841;SDS011;40741;45.002;7.536;2024-03-08T00:03:27;6.93;;;4.30;;
54841;SDS011;40741;45.002;7.536;2024-03-08T00:05:54;6.57;;;4.30;;
54841;SDS011;40741;45.002;7.536;2024-03-08T00:08:21;7.53;;;3.75;;
54841;SDS011;40741;45.002;7.536;2024-03-08T00:10:47;8.65;;;4.35;;
54841;SDS011;40741;45.002;7.536;2024-03-08T00:13:12;8.50;;;4.20;;
54841;SDS011;40741;45.002;7.536;2024-03-08T00:15:38;7.88;;;3.90;;
54841;SDS011;40741;45.002;7.536;2024-03-08T00:18:06;7.28;;;4.22;;
54841;SDS011;40741;45.002;7.536;2024-03-08T00:20:32;5.75;;;3.63;;
54841;SDS011;40741;45.002;7.536;2024-03-08T00:22:58;5.60;;;3.83;;
54841;SDS011;40741;45.002;7.536;2024-03-08T00:25:24;5.85;;;3.72;;
54841;SDS011;40741;45.002;7.536;2024-03-08T00:27:50;5.03;;;3.30;;
54841;SDS011;40741;45.002;7.536;2024-03-08T00:30:20;6.10;;;3.90;;
54841;SDS011;40741;45.002;7.536;2024-03-08T00:32:47;6.15;;;3.60;;
54841;SDS011;40741;45.002;7.536;2024-03-08T00:35:14;8.55;;;4.07;;
54841;SDS011;40741;45.002;7.536;2024-03-08T00:37:40;4.97;;;3.47;;
54841;SDS011;40741;45.002;7.536;2024-03-08T00:40:11;5.53;;;3.63;;
54841;SDS011;40741;45.002;7.536;2024-03-08T00:42:38;5.80;;;3.60;;
54841;SDS011;40741;45.002;7.536;2024-03-08T00:45:05;5.30;;;3.20;;
54841;SDS011;40741;45.002;7.536;2024-03-08T00:47:31;8.25;;;3.75;;
54841;SDS011;40741;45.002;7.536;2024-03-08T00:49:57;6.50;;;3.90;;
54841;SDS011;40741;45.002;7.536;2024-03-08T00:52:23;4.20;;;3.50;;
54841;SDS011;40741;45.002;7.536;2024-03-08T00:54:49;8.48;;;3.60;;
54841;SDS011;40741;45.002;7.536;2024-03-08T00:57:15;6.47;;;3.65;;
54841;SDS011;40741;45.002;7.536;2024-03-08T00:59:41;4.88;;;2.90;;
54841;SDS011;40741;45.002;7.536;2024-03-08T01:02:07;5.43;;;3.45;;
54841;SDS011;40741;45.002;7.536;2024-03-08T01:04:34;5.28;;;3.25;;
54841;SDS011;40741;45.002;7.536;2024-03-08T01:07:00;6.00;;;3.05;;
54841;SDS011;40741;45.002;7.536;2024-03-08T01:09:26;5.10;;;3.47;;
54841;SDS011;40741;45.002;7.536;2024-03-08T01:11:53;5.38;;;2.88;;
54841;SDS011;40741;45.002;7.536;2024-03-08T01:14:19;6.35;;;3.45;;
54841;SDS011;40741;45.002;7.536;2024-03-08T01:16:47;6.50;;;3.05;;
54841;SDS011;40741;45.002;7.536;2024-03-08T01:19:13;5.50;;;2.83;;
54841;SDS011;40741;45.002;7.536;2024-03-08T01:21:40;5.10;;;2.97;;
54841;SDS011;40741;45.002;7.536;2024-03-08T01:24:06;6.40;;;3.33;;
54841;SDS011;40741;45.002;7.536;2024-03-08T01:26:32;6.00;;;3.03;;
54841;SDS011;40741;45.002;7.536;2024-03-08T01:29:01;5.10;;;3.17;;
54841;SDS011;40741;45.002;7.536;2024-03-08T01:31:30;5.63;;;2.92;;
54841;SDS011;40741;45.002;7.536;2024-03-08T01:33:57;5.57;;;3.20;;
54841;SDS011;40741;45.002;7.536;2024-03-08T01:36:23;4.07;;;2.53;;
54841;SDS011;40741;45.002;7.536;2024-03-08T01:38:49;5.40;;;3.10;;
54841;SDS011;40741;45.002;7.536;2024-03-08T01:41:15;5.40;;;2.60;;
54841;SDS011;40741;45.002;7.536;2024-03-08T01:43:43;5.20;;;2.67;;
54841;SDS011;40741;45.002;7.536;2024-03-08T01:46:09;5.65;;;3.20;;
54841;SDS011;40741;45.002;7.536;2024-03-08T01:48:37;6.50;;;3.40;;
54841;SDS011;40741;45.002;7.536;2024-03-08T01:51:03;5.65;;;3.17;;
54841;SDS011;40741;45.002;7.536;2024-03-08T01:53:30;6.18;;;3.00;;
54841;SDS011;40741;45.002;7.536;2024-03-08T01:55:57;6.63;;;3.20;;
54841;SDS011;40741;45.002;7.536;2024-03-08T01:58:23;4.15;;;2.78;;
54841;SDS011;40741;45.002;7.536;2024-03-08T02:00:49;7.32;;;3.90;;
54841;SDS011;40741;45.002;7.536;2024-03-08T02:03:16;5.05;;;2.53;;
54841;SDS011;40741;45.002;7.536;2024-03-08T02:05:42;4.35;;;2.33;;
54841;SDS011;40741;45.002;7.536;2024-03-08T02:08:09;5.97;;;3.10;;
54841;SDS011;40741;45.002;7.536;2024-03-08T02:10:41;3.65;;;2.58;;
54841;SDS011;40741;45.002;7.536;2024-03-08T02:13:07;4.82;;;3.08;;
54841;SDS011;40741;45.002;7.536;2024-03-08T02:18:18;4.25;;;2.55;;
54841;SDS011;40741;45.002;7.536;2024-03-08T02:21:03;4.50;;;3.00;;
54841;SDS011;40741;45.002;7.536;2024-03-08T02:23:29;3.25;;;2.42;;
54841;SDS011;40741;45.002;7.536;2024-03-08T02:25:56;3.83;;;2.58;;
54841;SDS011;40741;45.002;7.536;2024-03-08T02:28:22;5.80;;;3.15;;
54841;SDS011;40741;45.002;7.536;2024-03-08T02:30:49;5.18;;;2.83;;
54841;SDS011;40741;45.002;7.536;2024-03-08T02:33:21;4.18;;;2.80;;
54841;SDS011;40741;45.002;7.536;2024-03-08T02:35:48;3.85;;;2.50;;
54841;SDS011;40741;45.002;7.536;2024-03-08T02:38:15;3.88;;;2.80;;
54841;SDS011;40741;45.002;7.536;2024-03-08T02:40:44;5.22;;;2.60;;
54841;SDS011;40741;45.002;7.536;2024-03-08T02:43:11;4.45;;;2.38;;
54841;SDS011;40741;45.002;7.536;2024-03-08T02:45:37;5.70;;;3.35;;
54841;SDS011;40741;45.002;7.536;2024-03-08T02:48:03;6.15;;;3.55;;
54841;SDS011;40741;45.002;7.536;2024-03-08T02:50:31;6.95;;;3.72;;
54841;SDS011;40741;45.002;7.536;2024-03-08T02:52:57;6.50;;;3.72;;
54841;SDS011;40741;45.002;7.536;2024-03-08T02:55:23;6.82;;;3.78;;
54841;SDS011;40741;45.002;7.536;2024-03-08T02:57:51;8.07;;;4.63;;
54841;SDS011;40741;45.002;7.536;2024-03-08T03:00:17;7.72;;;4.75;;
54841;SDS011;40741;45.002;7.536;2024-03-08T03:02:44;9.55;;;5.63;;
54841;SDS011;40741;45.002;7.536;2024-03-08T03:05:11;12.30;;;6.68;;
54841;SDS011;40741;45.002;7.536;2024-03-08T03:07:37;7.40;;;5.70;;
54841;SDS011;40741;45.002;7.536;2024-03-08T03:10:03;10.55;;;6.15;;
54841;SDS011;40741;45.002;7.536;2024-03-08T03:12:30;8.50;;;5.53;;
54841;SDS011;40741;45.002;7.536;2024-03-08T03:14:59;10.75;;;6.00;;
54841;SDS011;40741;45.002;7.536;2024-03-08T03:17:25;8.38;;;5.68;;
54841;SDS011;40741;45.002;7.536;2024-03-08T03:19:52;11.80;;;6.43;;
54841;SDS011;40741;45.002;7.536;2024-03-08T03:22:18;7.97;;;6.05;;
54841;SDS011;40741;45.002;7.536;2024-03-08T03:24:44;10.38;;;6.07;;
54841;SDS011;40741;45.002;7.536;2024-03-08T03:27:14;8.50;;;5.85;;
54841;SDS011;40741;45.002;7.536;2024-03-08T03:29:40;10.27;;;6.53;;
54841;SDS011;40741;45.002;7.536;2024-03-08T03:32:10;9.52;;;7.18;;
54841;SDS011;40741;45.002;7.536;2024-03-08T03:34:37;8.40;;;6.47;;
54841;SDS011;40741;45.002;7.536;2024-03-08T03:37:03;10.40;;;7.13;;
54841;SDS011;40741;45.002;7.536;2024-03-08T03:39:29;10.13;;;7.03;;
54841;SDS011;40741;45.002;7.536;2024-03-08T03:42:13;12.07;;;6.93;;
54841;SDS011;40741;45.002;7.536;2024-03-08T03:44:39;10.35;;;7.47;;
54841;SDS011;40741;45.002;7.536;2024-03-08T03:47:06;12.23;;;7.32;;
54841;SDS011;40741;45.002;7.536;2024-03-08T03:49:32;9.38;;;7.90;;
54841;SDS011;40741;45.002;7.536;2024-03-08T03:51:58;12.65;;;8.30;;
54841;SDS011;40741;45.002;7.536;2024-03-08T03:54:25;10.02;;;7.63;;
54841;SDS011;40741;45.002;7.536;2024-03-08T03:56:51;10.85;;;8.48;;
54841;SDS011;40741;45.002;7.536;2024-03-08T03:59:18;11.13;;;7.38;;
54841;SDS011;40741;45.002;7.536;2024-03-08T04:01:44;12.63;;;7.70;;
54841;SDS011;40741;45.002;7.536;2024-03-08T04:04:10;11.38;;;7.22;;
54841;SDS011;40741;45.002;7.536;2024-03-08T04:06:37;8.30;;;6.35;;
54841;SDS011;40741;45.002;7.536;2024-03-08T04:09:03;9.98;;;6.50;;
54841;SDS011;40741;45.002;7.536;2024-03-08T04:11:32;9.52;;;6.07;;
54841;SDS011;40741;45.002;7.536;2024-03-08T04:13:58;9.38;;;6.03;;
54841;SDS011;40741;45.002;7.536;2024-03-08T04:16:24;6.72;;;5.55;;
54841;SDS011;40741;45.002;7.536;2024-03-08T04:18:50;7.78;;;5.20;;
54841;SDS011;40741;45.002;7.536;2024-03-08T04:21:17;8.93;;;5.35;;
54841;SDS011;40741;45.002;7.536;2024-03-08T04:23:44;9.45;;;5.63;;
54841;SDS011;40741;45.002;7.536;2024-03-08T04:26:11;7.30;;;5.07;;
54841;SDS011;40741;45.002;7.536;2024-03-08T04:28:38;8.32;;;5.30;;
54841;SDS011;40741;45.002;7.536;2024-03-08T04:31:04;6.95;;;4.55;;
54841;SDS011;40741;45.002;7.536;2024-03-08T04:33:31;6.82;;;4.15;;
54841;SDS011;40741;45.002;7.536;2024-03-08T04:35:57;9.27;;;4.78;;
54841;SDS011;40741;45.002;7.536;2024-03-08T04:38:23;7.75;;;5.10;;
54841;SDS011;40741;45.002;7.536;2024-03-08T04:40:49;11.07;;;5.43;;
54841;SDS011;40741;45.002;7.536;2024-03-08T04:43:16;8.35;;;5.70;;
54841;SDS011;40741;45.002;7.536;2024-03-08T04:45:43;8.77;;;5.97;;
54841;SDS011;40741;45.002;7.536;2024-03-08T04:48:09;10.30;;;6.90;;
54841;SDS011;40741;45.002;7.536;2024-03-08T04:50:36;11.13;;;6.03;;
54841;SDS011;40741;45.002;7.536;2024-03-08T04:53:03;8.70;;;5.72;;
54841;SDS011;40741;45.002;7.536;2024-03-08T04:55:33;8.88;;;5.60;;
54841;SDS011;40741;45.002;7.536;2024-03-08T04:57:59;9.98;;;6.15;;
54841;SDS011;40741;45.002;7.536;2024-03-08T05:00:25;7.38;;;5.30;;
54841;SDS011;40741;45.002;7.536;2024-03-08T05:02:51;10.00;;;6.07;;
54841;SDS011;40741;45.002;7.536;2024-03-08T05:05:18;10.73;;;6.70;;
54841;SDS011;40741;45.002;7.536;2024-03-08T05:07:44;10.25;;;6.22;;
54841;SDS011;40741;45.002;7.536;2024-03-08T05:10:10;10.40;;;6.63;;
54841;SDS011;40741;45.002;7.536;2024-03-08T05:12:37;10.30;;;6.97;;
54841;SDS011;40741;45.002;7.536;2024-03-08T05:15:05;10.98;;;6.88;;
54841;SDS011;40741;45.002;7.536;2024-03-08T05:17:32;12.05;;;7.53;;
54841;SDS011;40741;45.002;7.536;2024-03-08T05:19:58;10.52;;;7.13;;
54841;SDS011;40741;45.002;7.536;2024-03-08T05:22:24;12.13;;;7.50;;
54841;SDS011;40741;45.002;7.536;2024-03-08T05:24:51;9.43;;;7.53;;
54841;SDS011;40741;45.002;7.536;2024-03-08T05:27:17;10.10;;;7.45;;
54841;SDS011;40741;45.002;7.536;2024-03-08T05:29:43;12.07;;;7.85;;
54841;SDS011;40741;45.002;7.536;2024-03-08T05:32:09;16.50;;;8.27;;
54841;SDS011;40741;45.002;7.536;2024-03-08T05:34:35;13.00;;;8.23;;
54841;SDS011;40741;45.002;7.536;2024-03-08T05:37:01;16.85;;;9.55;;
54841;SDS011;40741;45.002;7.536;2024-03-08T05:39:27;12.82;;;9.32;;
54841;SDS011;40741;45.002;7.536;2024-03-08T05:41:55;14.20;;;9.35;;
54841;SDS011;40741;45.002;7.536;2024-03-08T05:44:21;14.43;;;9.88;;
54841;SDS011;40741;45.002;7.536;2024-03-08T05:46:48;15.52;;;9.60;;
54841;SDS011;40741;45.002;7.536;2024-03-08T05:49:14;15.85;;;10.35;;
54841;SDS011;40741;45.002;7.536;2024-03-08T05:51:40;17.70;;;11.27;;
54841;SDS011;40741;45.002;7.536;2024-03-08T05:54:07;14.88;;;11.15;;
54841;SDS011;40741;45.002;7.536;2024-03-08T05:56:37;14.13;;;10.98;;
54841;SDS011;40741;45.002;7.536;2024-03-08T05:59:03;16.38;;;11.75;;
54841;SDS011;40741;45.002;7.536;2024-03-08T06:01:29;18.88;;;12.05;;
54841;SDS011;40741;45.002;7.536;2024-03-08T06:04:01;18.38;;;13.63;;
54841;SDS011;40741;45.002;7.536;2024-03-08T06:06:27;18.88;;;13.27;;
54841;SDS011;40741;45.002;7.536;2024-03-08T06:08:53;22.27;;;13.63;;
54841;SDS011;40741;45.002;7.536;2024-03-08T06:11:21;19.50;;;13.90;;
54841;SDS011;40741;45.002;7.536;2024-03-08T06:13:47;20.13;;;13.60;;
54841;SDS011;40741;45.002;7.536;2024-03-08T06:16:14;18.38;;;13.95;;
54841;SDS011;40741;45.002;7.536;2024-03-08T06:18:41;21.00;;;15.18;;
54841;SDS011;40741;45.002;7.536;2024-03-08T06:21:07;21.77;;;14.95;;
54841;SDS011;40741;45.002;7.536;2024-03-08T06:23:37;22.02;;;14.65;;
54841;SDS011;40741;45.002;7.536;2024-03-08T06:26:07;25.13;;;15.88;;
54841;SDS011;40741;45.002;7.536;2024-03-08T06:28:33;23.58;;;16.50;;
54841;SDS011;40741;45.002;7.536;2024-03-08T06:31:02;25.67;;;16.48;;
54841;SDS011;40741;45.002;7.536;2024-03-08T06:33:28;21.90;;;15.68;;
54841;SDS011;40741;45.002;7.536;2024-03-08T06:35:54;31.10;;;15.48;;
54841;SDS011;40741;45.002;7.536;2024-03-08T06:38:22;21.95;;;16.23;;
54841;SDS011;40741;45.002;7.536;2024-03-08T06:40:48;21.73;;;14.73;;
54841;SDS011;40741;45.002;7.536;2024-03-08T06:43:16;25.58;;;17.23;;
54841;SDS011;40741;45.002;7.536;2024-03-08T06:45:43;27.00;;;16.70;;
54841;SDS011;40741;45.002;7.536;2024-03-08T06:48:18;25.92;;;17.38;;
54841;SDS011;40741;45.002;7.536;2024-03-08T06:50:44;25.90;;;16.83;;
54841;SDS011;40741;45.002;7.536;2024-03-08T06:53:11;27.80;;;17.77;;
54841;SDS011;40741;45.002;7.536;2024-03-08T06:55:37;28.38;;;18.85;;
54841;SDS011;40741;45.002;7.536;2024-03-08T06:58:03;27.45;;;19.15;;
54841;SDS011;40741;45.002;7.536;2024-03-08T07:00:29;30.15;;;18.95;;
54841;SDS011;40741;45.002;7.536;2024-03-08T07:02:58;28.15;;;19.67;;
54841;SDS011;40741;45.002;7.536;2024-03-08T07:05:28;33.17;;;20.45;;
54841;SDS011;40741;45.002;7.536;2024-03-08T07:07:54;27.63;;;20.25;;
54841;SDS011;40741;45.002;7.536;2024-03-08T07:10:21;27.70;;;19.83;;
54841;SDS011;40741;45.002;7.536;2024-03-08T07:12:49;28.40;;;19.88;;
54841;SDS011;40741;45.002;7.536;2024-03-08T07:15:15;30.77;;;20.60;;
54841;SDS011;40741;45.002;7.536;2024-03-08T07:17:41;28.70;;;20.25;;
54841;SDS011;40741;45.002;7.536;2024-03-08T07:20:09;34.60;;;22.52;;
54841;SDS011;40741;45.002;7.536;2024-03-08T07:22:37;33.38;;;21.38;;
54841;SDS011;40741;45.002;7.536;2024-03-08T07:25:06;30.02;;;21.58;;
54841;SDS011;40741;45.002;7.536;2024-03-08T07:27:35;32.05;;;21.70;;
54841;SDS011;40741;45.002;7.536;2024-03-08T07:30:01;31.95;;;21.48;;
54841;SDS011;40741;45.002;7.536;2024-03-08T07:32:27;34.40;;;22.25;;
54841;SDS011;40741;45.002;7.536;2024-03-08T07:34:55;28.88;;;21.02;;
54841;SDS011;40741;45.002;7.536;2024-03-08T07:37:21;28.80;;;20.77;;
54841;SDS011;40741;45.002;7.536;2024-03-08T07:39:48;31.25;;;20.63;;
54841;SDS011;40741;45.002;7.536;2024-03-08T07:42:15;31.70;;;20.02;;
54841;SDS011;40741;45.002;7.536;2024-03-08T07:44:41;33.88;;;21.00;;
54841;SDS011;40741;45.002;7.536;2024-03-08T07:47:08;30.27;;;19.85;;
54841;SDS011;40741;45.002;7.536;2024-03-08T07:49:35;28.70;;;18.88;;
54841;SDS011;40741;45.002;7.536;2024-03-08T07:52:02;29.35;;;20.67;;
54841;SDS011;40741;45.002;7.536;2024-03-08T07:54:29;24.75;;;17.52;;
54841;SDS011;40741;45.002;7.536;2024-03-08T07:56:55;26.73;;;17.90;;
54841;SDS011;40741;45.002;7.536;2024-03-08T07:59:21;28.20;;;17.33;;
54841;SDS011;40741;45.002;7.536;2024-03-08T08:01:47;29.23;;;18.13;;
54841;SDS011;40741;45.002;7.536;2024-03-08T08:04:13;24.80;;;17.48;;
54841;SDS011;40741;45.002;7.536;2024-03-08T08:06:39;26.30;;;17.17;;
54841;SDS011;40741;45.002;7.536;2024-03-08T08:09:08;29.23;;;16.65;;
54841;SDS011;40741;45.002;7.536;2024-03-08T08:11:41;26.83;;;16.58;;
54841;SDS011;40741;45.002;7.536;2024-03-08T08:14:10;24.50;;;15.93;;
54841;SDS011;40741;45.002;7.536;2024-03-08T08:16:36;24.70;;;15.65;;
54841;SDS011;40741;45.002;7.536;2024-03-08T08:19:02;25.35;;;14.93;;
54841;SDS011;40741;45.002;7.536;2024-03-08T08:21:33;20.90;;;14.27;;
54841;SDS011;40741;45.002;7.536;2024-03-08T08:23:59;21.38;;;14.25;;
54841;SDS011;40741;45.002;7.536;2024-03-08T08:26:25;23.98;;;14.25;;
54841;SDS011;40741;45.002;7.536;2024-03-08T08:28:51;22.00;;;13.95;;
54841;SDS011;40741;45.002;7.536;2024-03-08T08:31:18;20.48;;;14.85;;
54841;SDS011;40741;45.002;7.536;2024-03-08T08:33:44;28.35;;;17.25;;
54841;SDS011;40741;45.002;7.536;2024-03-08T08:36:10;24.23;;;15.73;;
54841;SDS011;40741;45.002;7.536;2024-03-08T08:38:36;25.35;;;16.48;;
54841;SDS011;40741;45.002;7.536;2024-03-08T08:41:03;25.25;;;15.68;;
54841;SDS011;40741;45.002;7.536;2024-03-08T08:43:31;24.45;;;15.70;;
54841;SDS011;40741;45.002;7.536;2024-03-08T08:45:58;21.48;;;14.68;;
54841;SDS011;40741;45.002;7.536;2024-03-08T08:48:24;27.80;;;15.48;;
54841;SDS011;40741;45.002;7.536;2024-03-08T08:50:51;22.35;;;14.65;;
54841;SDS011;40741;45.002;7.536;2024-03-08T08:53:17;21.73;;;14.77;;
54841;SDS011;40741;45.002;7.536;2024-03-08T08:55:43;27.95;;;14.90;;
54841;SDS011;40741;45.002;7.536;2024-03-08T08:58:10;21.13;;;14.50;;
54841;SDS011;40741;45.002;7.536;2024-03-08T09:00:37;20.17;;;15.48;;
54841;SDS011;40741;45.002;7.536;2024-03-08T09:03:04;18.42;;;13.25;;
54841;SDS011;40741;45.002;7.536;2024-03-08T09:05:31;24.60;;;15.15;;
54841;SDS011;40741;45.002;7.536;2024-03-08T09:07:58;19.33;;;14.63;;
54841;SDS011;40741;45.002;7.536;2024-03-08T09:10:25;23.77;;;16.42;;
54841;SDS011;40741;45.002;7.536;2024-03-08T09:12:52;23.85;;;15.05;;
54841;SDS011;40741;45.002;7.536;2024-03-08T09:15:19;24.20;;;14.48;;
54841;SDS011;40741;45.002;7.536;2024-03-08T09:17:46;21.70;;;15.00;;
54841;SDS011;40741;45.002;7.536;2024-03-08T09:20:13;23.33;;;15.20;;
54841;SDS011;40741;45.002;7.536;2024-03-08T09:22:40;26.33;;;15.98;;
54841;SDS011;40741;45.002;7.536;2024-03-08T09:25:06;25.70;;;15.07;;
54841;SDS011;40741;45.002;7.536;2024-03-08T09:27:34;20.45;;;14.63;;
54841;SDS011;40741;45.002;7.536;2024-03-08T09:30:00;21.83;;;14.27;;
54841;SDS011;40741;45.002;7.536;2024-03-08T09:32:26;23.20;;;15.35;;
54841;SDS011;40741;45.002;7.536;2024-03-08T09:34:52;26.67;;;16.63;;
54841;SDS011;40741;45.002;7.536;2024-03-08T09:37:18;25.80;;;16.45;;
54841;SDS011;40741;45.002;7.536;2024-03-08T09:39:44;23.77;;;15.00;;
54841;SDS011;40741;45.002;7.536;2024-03-08T09:42:10;24.83;;;17.25;;
54841;SDS011;40741;45.002;7.536;2024-03-08T09:44:43;24.77;;;16.48;;
54841;SDS011;40741;45.002;7.536;2024-03-08T09:47:09;23.58;;;16.85;;
54841;SDS011;40741;45.002;7.536;2024-03-08T09:49:38;27.42;;;18.05;;
54841;SDS011;40741;45.002;7.536;2024-03-08T09:52:05;24.00;;;17.85;;
54841;SDS011;40741;45.002;7.536;2024-03-08T09:54:32;26.75;;;17.92;;
54841;SDS011;40741;45.002;7.536;2024-03-08T09:56:58;26.23;;;18.13;;
54841;SDS011;40741;45.002;7.536;2024-03-08T09:59:25;27.98;;;19.38;;
54841;SDS011;40741;45.002;7.536;2024-03-08T10:01:51;27.08;;;20.08;;
54841;SDS011;40741;45.002;7.536;2024-03-08T10:04:17;29.60;;;20.92;;
54841;SDS011;40741;45.002;7.536;2024-03-08T10:06:45;34.08;;;21.35;;
54841;SDS011;40741;45.002;7.536;2024-03-08T10:09:12;33.55;;;21.42;;
54841;SDS011;40741;45.002;7.536;2024-03-08T10:11:39;28.35;;;20.73;;
54841;SDS011;40741;45.002;7.536;2024-03-08T10:14:05;31.55;;;20.70;;
54841;SDS011;40741;45.002;7.536;2024-03-08T10:16:33;30.88;;;23.90;;
54841;SDS011;40741;45.002;7.536;2024-03-08T10:19:00;34.65;;;25.67;;
54841;SDS011;40741;45.002;7.536;2024-03-08T10:21:26;26.58;;;22.55;;
54841;SDS011;40741;45.002;7.536;2024-03-08T10:23:52;29.55;;;22.63;;
54841;SDS011;40741;45.002;7.536;2024-03-08T10:26:18;29.17;;;21.35;;
54841;SDS011;40741;45.002;7.536;2024-03-08T10:28:47;45.33;;;25.60;;
54841;SDS011;40741;45.002;7.536;2024-03-08T10:31:16;33.80;;;21.00;;
54841;SDS011;40741;45.002;7.536;2024-03-08T10:33:42;34.45;;;20.80;;
54841;SDS011;40741;45.002;7.536;2024-03-08T10:36:09;42.45;;;25.92;;
54841;SDS011;40741;45.002;7.536;2024-03-08T10:38:39;31.48;;;20.85;;
54841;SDS011;40741;45.002;7.536;2024-03-08T10:41:06;41.13;;;26.63;;
54841;SDS011;40741;45.002;7.536;2024-03-08T10:44:36;37.78;;;26.08;;
54841;SDS011;40741;45.002;7.536;2024-03-08T10:46:48;48.67;;;29.65;;
54841;SDS011;40741;45.002;7.536;2024-03-08T10:49:20;41.10;;;24.40;;
54841;SDS011;40741;45.002;7.536;2024-03-08T10:51:48;33.05;;;21.40;;
54841;SDS011;40741;45.002;7.536;2024-03-08T10:54:16;30.92;;;20.55;;
54841;SDS011;40741;45.002;7.536;2024-03-08T10:56:43;36.00;;;23.95;;
54841;SDS011;40741;45.002;7.536;2024-03-08T10:59:09;34.28;;;24.13;;
54841;SDS011;40741;45.002;7.536;2024-03-08T11:01:35;37.67;;;24.45;;
54841;SDS011;40741;45.002;7.536;2024-03-08T11:04:03;40.10;;;23.50;;
54841;SDS011;40741;45.002;7.536;2024-03-08T11:09:02;37.55;;;23.13;;
54841;SDS011;40741;45.002;7.536;2024-03-08T11:11:29;37.05;;;23.73;;
54841;SDS011;40741;45.002;7.536;2024-03-08T11:13:56;39.17;;;24.15;;
54841;SDS011;40741;45.002;7.536;2024-03-08T11:18:54;37.13;;;24.35;;
54841;SDS011;40741;45.002;7.536;2024-03-08T11:21:20;47.42;;;31.70;;
54841;SDS011;40741;45.002;7.536;2024-03-08T11:24:00;34.28;;;23.60;;
54841;SDS011;40741;45.002;7.536;2024-03-08T11:26:26;35.35;;;23.52;;
54841;SDS011;40741;45.002;7.536;2024-03-08T11:28:52;40.55;;;24.23;;
54841;SDS011;40741;45.002;7.536;2024-03-08T11:33:47;37.88;;;22.67;;
54841;SDS011;40741;45.002;7.536;2024-03-08T11:36:23;36.92;;;26.10;;
54841;SDS011;40741;45.002;7.536;2024-03-08T11:38:50;39.83;;;23.48;;
54841;SDS011;40741;45.002;7.536;2024-03-08T11:41:22;46.67;;;25.93;;
54841;SDS011;40741;45.002;7.536;2024-03-08T11:43:49;40.90;;;24.23;;
54841;SDS011;40741;45.002;7.536;2024-03-08T11:46:16;40.47;;;24.02;;
54841;SDS011;40741;45.002;7.536;2024-03-08T11:48:43;39.20;;;24.58;;
54841;SDS011;40741;45.002;7.536;2024-03-08T11:51:13;38.10;;;25.63;;
54841;SDS011;40741;45.002;7.536;2024-03-08T11:53:39;39.17;;;25.25;;
54841;SDS011;40741;45.002;7.536;2024-03-08T11:56:12;41.80;;;24.92;;
54841;SDS011;40741;45.002;7.536;2024-03-08T12:01:11;42.65;;;25.40;;
54841;SDS011;40741;45.002;7.536;2024-03-08T12:03:40;39.40;;;26.42;;
54841;SDS011;40741;45.002;7.536;2024-03-08T12:06:09;47.80;;;28.77;;
54841;SDS011;40741;45.002;7.536;2024-03-08T12:08:35;46.53;;;27.88;;
54841;SDS011;40741;45.002;7.536;2024-03-08T12:11:03;43.08;;;26.17;;
54841;SDS011;40741;45.002;7.536;2024-03-08T12:13:30;45.65;;;29.23;;
54841;SDS011;40741;45.002;7.536;2024-03-08T12:16:00;50.78;;;30.65;;
54841;SDS011;40741;45.002;7.536;2024-03-08T12:18:30;51.92;;;31.13;;
54841;SDS011;40741;45.002;7.536;2024-03-08T12:23:32;43.80;;;27.83;;
54841;SDS011;40741;45.002;7.536;2024-03-08T12:26:08;43.72;;;28.52;;
54841;SDS011;40741;45.002;7.536;2024-03-08T12:28:38;43.10;;;28.48;;
54841;SDS011;40741;45.002;7.536;2024-03-08T12:31:06;49.85;;;31.27;;
54841;SDS011;40741;45.002;7.536;2024-03-08T12:33:36;55.53;;;32.28;;
54841;SDS011;40741;45.002;7.536;2024-03-08T12:36:02;52.15;;;31.75;;
54841;SDS011;40741;45.002;7.536;2024-03-08T12:38:32;44.75;;;28.67;;
54841;SDS011;40741;45.002;7.536;2024-03-08T12:41:00;47.55;;;28.73;;
54841;SDS011;40741;45.002;7.536;2024-03-08T12:43:26;45.25;;;26.95;;
54841;SDS011;40741;45.002;7.536;2024-03-08T12:45:55;46.50;;;28.00;;
54841;SDS011;40741;45.002;7.536;2024-03-08T12:48:21;45.83;;;28.02;;
54841;SDS011;40741;45.002;7.536;2024-03-08T12:50:47;43.03;;;28.88;;
54841;SDS011;40741;45.002;7.536;2024-03-08T12:53:13;48.08;;;30.40;;
54841;SDS011;40741;45.002;7.536;2024-03-08T12:55:39;53.00;;;31.25;;
54841;SDS011;40741;45.002;7.536;2024-03-08T12:58:06;51.00;;;28.63;;
54841;SDS011;40741;45.002;7.536;2024-03-08T13:00:36;50.28;;;29.92;;
54841;SDS011;40741;45.002;7.536;2024-03-08T13:03:02;46.67;;;29.98;;
54841;SDS011;40741;45.002;7.536;2024-03-08T13:05:28;49.80;;;30.05;;
54841;SDS011;40741;45.002;7.536;2024-03-08T13:07:55;53.20;;;30.10;;
54841;SDS011;40741;45.002;7.536;2024-03-08T13:10:22;45.58;;;29.42;;
54841;SDS011;40741;45.002;7.536;2024-03-08T13:12:48;50.20;;;31.80;;
54841;SDS011;40741;45.002;7.536;2024-03-08T13:15:14;50.17;;;31.27;;
54841;SDS011;40741;45.002;7.536;2024-03-08T13:17:45;49.55;;;30.88;;
54841;SDS011;40741;45.002;7.536;2024-03-08T13:20:11;52.10;;;30.98;;
54841;SDS011;40741;45.002;7.536;2024-03-08T13:22:43;48.17;;;31.13;;
54841;SDS011;40741;45.002;7.536;2024-03-08T13:25:09;53.47;;;30.02;;
54841;SDS011;40741;45.002;7.536;2024-03-08T13:27:41;55.08;;;32.28;;
54841;SDS011;40741;45.002;7.536;2024-03-08T13:30:14;57.10;;;32.63;;
54841;SDS011;40741;45.002;7.536;2024-03-08T13:32:43;54.22;;;30.02;;
54841;SDS011;40741;45.002;7.536;2024-03-08T13:35:09;53.28;;;33.25;;
54841;SDS011;40741;45.002;7.536;2024-03-08T13:37:39;48.20;;;31.73;;
54841;SDS011;40741;45.002;7.536;2024-03-08T13:40:06;50.88;;;29.83;;
54841;SDS011;40741;45.002;7.536;2024-03-08T13:42:35;49.75;;;30.98;;
54841;SDS011;40741;45.002;7.536;2024-03-08T13:45:03;50.33;;;30.60;;
54841;SDS011;40741;45.002;7.536;2024-03-08T13:47:29;51.65;;;32.47;;
54841;SDS011;40741;45.002;7.536;2024-03-08T13:49:56;48.75;;;29.73;;
54841;SDS011;40741;45.002;7.536;2024-03-08T13:52:22;52.13;;;31.67;;
54841;SDS011;40741;45.002;7.536;2024-03-08T13:54:50;50.00;;;32.35;;
54841;SDS011;40741;45.002;7.536;2024-03-08T13:57:16;34.10;;;20.83;;
54841;SDS011;40741;45.002;7.536;2024-03-08T13:59:43;44.30;;;27.38;;
54841;SDS011;40741;45.002;7.536;2024-03-08T14:02:09;42.85;;;26.25;;
54841;SDS011;40741;45.002;7.536;2024-03-08T14:04:38;40.78;;;25.20;;
54841;SDS011;40741;45.002;7.536;2024-03-08T14:07:06;38.80;;;23.40;;
54841;SDS011;40741;45.002;7.536;2024-03-08T14:09:33;23.48;;;14.77;;
54841;SDS011;40741;45.002;7.536;2024-03-08T14:12:02;20.30;;;13.82;;
54841;SDS011;40741;45.002;7.536;2024-03-08T14:14:32;48.97;;;29.20;;
54841;SDS011;40741;45.002;7.536;2024-03-08T14:17:00;44.10;;;27.95;;
54841;SDS011;40741;45.002;7.536;2024-03-08T14:19:27;46.97;;;29.27;;
54841;SDS011;40741;45.002;7.536;2024-03-08T14:21:55;47.13;;;28.38;;
54841;SDS011;40741;45.002;7.536;2024-03-08T14:24:24;45.72;;;28.67;;
54841;SDS011;40741;45.002;7.536;2024-03-08T14:26:50;44.33;;;28.55;;
54841;SDS011;40741;45.002;7.536;2024-03-08T14:29:16;46.50;;;29.75;;
54841;SDS011;40741;45.002;7.536;2024-03-08T14:31:43;44.65;;;28.23;;
54841;SDS011;40741;45.002;7.536;2024-03-08T14:34:10;47.83;;;29.13;;
54841;SDS011;40741;45.002;7.536;2024-03-08T14:36:36;51.03;;;30.15;;
54841;SDS011;40741;45.002;7.536;2024-03-08T14:39:03;50.40;;;27.85;;
54841;SDS011;40741;45.002;7.536;2024-03-08T14:41:29;48.97;;;31.67;;
54841;SDS011;40741;45.002;7.536;2024-03-08T14:43:55;44.63;;;30.08;;
54841;SDS011;40741;45.002;7.536;2024-03-08T14:46:22;49.15;;;29.80;;